createdAt,value
2019-04-29T00:01:17.905Z,33.17
2019-04-29T00:03:25.828Z,34.60
2019-04-29T00:05:33.455Z,37.20
2019-04-29T00:07:41.282Z,40.00
2019-04-29T00:09:49.167Z,32.17
2019-04-29T00:11:57.345Z,35.67
2019-04-29T00:14:05.275Z,39.00
2019-04-29T00:16:32.201Z,33.37
2019-04-29T00:18:55.032Z,39.10
2019-04-29T00:21:02.917Z,37.17
2019-04-29T00:23:10.830Z,33.83
2019-04-29T00:25:18.706Z,34.97
2019-04-29T00:27:26.634Z,35.63
2019-04-29T00:29:34.499Z,37.37
2019-04-29T00:31:42.282Z,37.83
2019-04-29T00:33:50.051Z,41.70
2019-04-29T00:35:57.859Z,40.30
2019-04-29T00:38:24.561Z,33.00
2019-04-29T00:40:50.561Z,42.63
2019-04-29T00:43:23.084Z,42.63
2019-04-29T00:45:31.109Z,40.77
2019-04-29T00:47:39.092Z,38.83
2019-04-29T00:49:46.891Z,35.97
2019-04-29T00:51:54.787Z,36.93
2019-04-29T00:54:07.784Z,34.10
2019-04-29T00:56:15.514Z,34.63
2019-04-29T00:58:23.184Z,35.57
2019-04-29T01:00:40.060Z,34.80
2019-04-29T01:02:47.863Z,31.80
2019-04-29T01:04:55.557Z,38.37
2019-04-29T01:07:03.384Z,40.03
2019-04-29T01:09:14.203Z,37.93
2019-04-29T01:11:21.936Z,32.57
2019-04-29T01:13:29.691Z,34.53
2019-04-29T01:15:37.710Z,41.93
2019-04-29T01:17:45.430Z,34.97
2019-04-29T01:19:53.122Z,42.93
2019-04-29T01:22:01.180Z,34.57
2019-04-29T01:24:08.906Z,37.43
2019-04-29T01:26:35.454Z,34.83
2019-04-29T01:28:51.012Z,40.20
2019-04-29T01:31:07.047Z,41.00
2019-04-29T01:33:14.763Z,39.27
2019-04-29T01:35:22.370Z,116.70
2019-04-29T01:37:37.325Z,70.07
2019-04-29T01:40:09.841Z,40.20
2019-04-29T01:42:30.368Z,453.20
2019-04-29T01:44:38.822Z,650.27
2019-04-29T01:46:46.725Z,463.83
2019-04-29T01:48:54.374Z,655.40
2019-04-29T01:51:02.042Z,790.87
2019-04-29T01:53:10.284Z,389.90
2019-04-29T01:55:18.029Z,103.10
2019-04-29T01:57:25.481Z,183.00
2019-04-29T01:59:33.292Z,320.10
2019-04-29T02:01:40.994Z,67.63
2019-04-29T02:03:48.751Z,70.13
2019-04-29T02:05:56.539Z,301.30
2019-04-29T02:08:04.141Z,111.03
2019-04-29T02:10:37.133Z,60.30
2019-04-29T02:12:44.928Z,42.87
2019-04-29T02:14:52.553Z,98.10
2019-04-29T02:17:00.307Z,38.27
2019-04-29T02:19:08.063Z,38.63
2019-04-29T02:21:15.724Z,43.40
2019-04-29T02:23:45.204Z,38.00
2019-04-29T02:25:53.125Z,36.47
2019-04-29T02:28:00.900Z,36.63
2019-04-29T02:30:10.441Z,39.77
2019-04-29T02:32:18.097Z,36.77
2019-04-29T02:34:25.822Z,47.00
2019-04-29T02:36:33.497Z,44.13
2019-04-29T02:38:59.931Z,44.53
2019-04-29T02:41:26.822Z,51.67
2019-04-29T02:43:36.182Z,45.40
2019-04-29T02:45:43.985Z,39.47
2019-04-29T02:47:51.654Z,42.33
2019-04-29T02:49:59.485Z,43.33
2019-04-29T02:52:07.483Z,47.43
2019-04-29T02:54:15.446Z,47.17
2019-04-29T02:56:23.203Z,39.10
2019-04-29T02:58:58.569Z,46.40
2019-04-29T03:01:25.081Z,43.80
2019-04-29T03:04:00.307Z,39.03
2019-04-29T03:06:08.271Z,41.13
2019-04-29T03:08:16.047Z,39.23
2019-04-29T03:10:23.859Z,42.07
2019-04-29T03:12:31.596Z,45.13
2019-04-29T03:14:39.662Z,41.63
2019-04-29T03:16:47.549Z,44.90
2019-04-29T03:19:00.101Z,39.70
2019-04-29T03:21:19.409Z,42.53
2019-04-29T03:23:27.500Z,41.90
2019-04-29T03:25:35.377Z,39.90
2019-04-29T03:27:43.236Z,40.90
2019-04-29T03:29:51.039Z,44.87
2019-04-29T03:31:59.246Z,52.10
2019-04-29T03:34:15.429Z,46.30
2019-04-29T03:36:23.228Z,41.27
2019-04-29T03:38:31.016Z,44.13
2019-04-29T03:40:38.930Z,46.20
2019-04-29T03:42:52.262Z,44.20
2019-04-29T03:44:59.925Z,42.97
2019-04-29T03:47:07.862Z,42.53
2019-04-29T03:49:15.622Z,51.37
2019-04-29T03:51:23.323Z,39.03
2019-04-29T03:53:30.953Z,46.93
2019-04-29T03:55:40.679Z,46.20
2019-04-29T03:57:48.277Z,42.87
2019-04-29T03:59:57.168Z,45.63
2019-04-29T04:02:16.081Z,41.40
2019-04-29T04:04:42.826Z,45.20
2019-04-29T04:06:59.006Z,44.80
2019-04-29T04:09:19.628Z,46.00
2019-04-29T04:11:27.158Z,51.77
2019-04-29T04:13:35.052Z,44.50
2019-04-29T04:15:43.016Z,46.03
2019-04-29T04:17:59.830Z,43.77
2019-04-29T04:20:09.084Z,46.97
2019-04-29T04:22:16.840Z,48.50
2019-04-29T04:24:24.674Z,48.37
2019-04-29T04:26:32.411Z,50.63
2019-04-29T04:28:40.110Z,47.23
2019-04-29T04:30:47.889Z,43.13
2019-04-29T04:32:55.716Z,44.97
2019-04-29T04:35:03.629Z,44.87
2019-04-29T04:37:11.416Z,44.33
2019-04-29T04:39:19.126Z,53.37
2019-04-29T04:41:26.916Z,56.17
2019-04-29T04:43:34.604Z,54.27
2019-04-29T04:45:42.343Z,64.50
2019-04-29T04:47:50.171Z,67.53
2019-04-29T04:49:57.850Z,62.03
2019-04-29T04:52:05.620Z,62.67
2019-04-29T04:54:13.375Z,68.30
2019-04-29T04:56:21.127Z,71.77
2019-04-29T04:58:28.951Z,69.03
2019-04-29T05:00:38.042Z,84.27
2019-04-29T05:02:45.823Z,69.87
2019-04-29T05:04:53.434Z,68.10
2019-04-29T05:07:01.198Z,70.57
2019-04-29T05:09:09.233Z,76.47
2019-04-29T05:11:17.092Z,74.30
2019-04-29T05:13:28.198Z,69.73
2019-04-29T05:15:34.954Z,64.30
2019-04-29T05:17:42.785Z,70.13
2019-04-29T05:19:50.549Z,66.23
2019-04-29T05:21:58.417Z,68.10
2019-04-29T05:24:06.157Z,69.73
2019-04-29T05:26:13.903Z,69.73
2019-04-29T05:28:21.643Z,60.20
2019-04-29T05:30:29.425Z,58.23
2019-04-29T05:32:37.231Z,48.60
2019-04-29T05:34:48.280Z,54.57
2019-04-29T05:37:12.131Z,55.77
2019-04-29T05:39:26.284Z,50.67
2019-04-29T05:41:34.770Z,49.57
2019-04-29T05:43:52.418Z,46.40
2019-04-29T05:46:12.464Z,49.03
2019-04-29T05:48:20.620Z,44.93
2019-04-29T05:50:52.178Z,45.43
2019-04-29T05:53:05.013Z,46.73
2019-04-29T05:55:13.695Z,49.47
2019-04-29T05:57:25.254Z,41.53
2019-04-29T05:59:31.914Z,46.93
2019-04-29T06:01:42.617Z,46.67
2019-04-29T06:03:49.293Z,46.53
2019-04-29T06:05:57.191Z,41.90
2019-04-29T06:08:04.972Z,43.13
2019-04-29T06:10:12.816Z,39.10
2019-04-29T06:12:20.559Z,44.53
2019-04-29T06:14:28.214Z,47.23
2019-04-29T06:16:36.109Z,46.23
2019-04-29T06:18:44.069Z,45.90
2019-04-29T06:20:51.986Z,43.53
2019-04-29T06:22:59.773Z,44.77
2019-04-29T06:25:07.826Z,45.17
2019-04-29T06:27:15.595Z,41.07
2019-04-29T06:29:23.467Z,43.13
2019-04-29T06:31:31.212Z,40.37
2019-04-29T06:33:38.657Z,38.40
2019-04-29T06:35:47.440Z,45.97
2019-04-29T06:37:56.197Z,47.37
2019-04-29T06:40:04.151Z,42.33
2019-04-29T06:42:15.430Z,48.20
2019-04-29T06:44:21.339Z,46.17
2019-04-29T06:46:29.099Z,45.13
2019-04-29T06:48:37.152Z,42.20
2019-04-29T06:50:44.960Z,42.60
2019-04-29T06:52:52.828Z,48.80
2019-04-29T06:55:00.754Z,47.27
2019-04-29T06:57:08.516Z,46.10
2019-04-29T06:59:16.395Z,40.13
2019-04-29T07:01:24.236Z,43.53
2019-04-29T07:03:31.989Z,42.47
2019-04-29T07:05:39.812Z,46.97
2019-04-29T07:07:47.583Z,42.50
2019-04-29T07:09:56.987Z,45.20
2019-04-29T07:12:08.131Z,48.87
2019-04-29T07:14:14.809Z,40.60
2019-04-29T07:16:27.205Z,41.63
2019-04-29T07:18:32.366Z,45.50
2019-04-29T07:20:40.238Z,41.33
2019-04-29T07:22:48.174Z,42.33
2019-04-29T07:24:55.960Z,40.80
2019-04-29T07:27:04.498Z,42.20
2019-04-29T07:29:12.290Z,39.70
2019-04-29T07:31:20.533Z,39.13
2019-04-29T07:33:28.544Z,43.93
2019-04-29T07:35:38.168Z,40.03
2019-04-29T07:37:45.711Z,40.67
2019-04-29T07:39:53.555Z,44.27
2019-04-29T07:42:03.241Z,43.03
2019-04-29T07:44:13.770Z,39.57
2019-04-29T07:46:56.389Z,38.10
2019-04-29T07:49:01.694Z,45.73
2019-04-29T07:51:05.941Z,46.27
2019-04-29T07:53:14.145Z,41.90
2019-04-29T07:55:25.903Z,43.00
2019-04-29T07:57:31.335Z,36.63
2019-04-29T07:59:39.701Z,43.37
2019-04-29T08:01:47.531Z,38.87
2019-04-29T08:03:55.243Z,38.27
2019-04-29T08:06:03.215Z,47.73
2019-04-29T08:08:11.215Z,49.17
2019-04-29T08:10:23.763Z,40.53
2019-04-29T08:12:33.129Z,41.93
2019-04-29T08:14:41.973Z,47.17
2019-04-29T08:16:49.759Z,44.13
2019-04-29T08:18:57.731Z,41.30
2019-04-29T08:21:05.716Z,43.73
2019-04-29T08:23:13.511Z,38.10
2019-04-29T08:25:21.780Z,41.07
2019-04-29T08:27:39.910Z,53.00
2019-04-29T08:29:40.510Z,60.53
2019-04-29T08:31:51.825Z,44.90
2019-04-29T08:33:57.770Z,51.17
2019-04-29T08:36:05.834Z,46.87
2019-04-29T08:38:13.389Z,47.83
2019-04-29T08:40:21.210Z,55.97
2019-04-29T08:42:32.124Z,53.33
2019-04-29T08:45:07.819Z,52.53
2019-04-29T08:47:23.583Z,50.67
2019-04-29T08:49:30.909Z,45.73
2019-04-29T08:51:38.656Z,39.37
2019-04-29T08:53:46.380Z,38.42
2019-04-29T08:55:54.195Z,38.80
2019-04-29T08:58:02.172Z,37.83
2019-04-29T09:00:12.166Z,39.65
2019-04-29T09:02:33.566Z,36.67
2019-04-29T09:04:33.274Z,39.95
2019-04-29T09:06:40.722Z,35.00
2019-04-29T09:08:55.513Z,36.68
2019-04-29T09:10:58.077Z,32.98
2019-04-29T09:13:05.964Z,39.18
2019-04-29T09:15:14.568Z,42.35
2019-04-29T09:17:22.578Z,40.58
2019-04-29T09:19:30.464Z,37.83
2019-04-29T09:21:39.868Z,42.70
2019-04-29T09:23:47.720Z,41.08
2019-04-29T09:26:05.349Z,37.15
2019-04-29T09:28:17.972Z,38.00
2019-04-29T09:30:23.637Z,42.10
2019-04-29T09:32:33.957Z,41.00
2019-04-29T09:34:40.823Z,39.38
2019-04-29T09:36:49.834Z,33.53
2019-04-29T09:38:57.683Z,36.75
2019-04-29T09:41:12.747Z,46.50
2019-04-29T09:43:41.750Z,40.73
2019-04-29T09:46:03.465Z,40.98
2019-04-29T09:48:11.247Z,35.55
2019-04-29T09:50:19.520Z,39.92
2019-04-29T09:52:27.313Z,33.78
2019-04-29T09:54:35.097Z,42.05
2019-04-29T09:56:43.537Z,35.30
2019-04-29T09:58:54.450Z,32.08
2019-04-29T10:01:18.931Z,33.02
2019-04-29T10:03:44.031Z,36.15
2019-04-29T10:06:05.339Z,37.50
2019-04-29T10:08:13.283Z,33.48
2019-04-29T10:10:21.263Z,34.15
2019-04-29T10:12:28.948Z,37.10
2019-04-29T10:14:36.792Z,38.08
2019-04-29T10:17:03.329Z,33.10
2019-04-29T10:19:25.161Z,38.53
2019-04-29T10:21:33.062Z,33.98
2019-04-29T10:23:40.925Z,37.35
2019-04-29T10:25:48.847Z,33.23
2019-04-29T10:27:56.442Z,32.88
2019-04-29T10:30:06.136Z,34.58
2019-04-29T10:32:14.754Z,34.63
2019-04-29T10:34:22.583Z,33.88
2019-04-29T10:36:30.273Z,35.70
2019-04-29T10:38:40.448Z,35.63
2019-04-29T10:41:03.586Z,36.33
2019-04-29T10:43:20.696Z,31.05
2019-04-29T10:45:47.305Z,36.85
2019-04-29T10:48:03.799Z,30.52
2019-04-29T10:50:16.810Z,34.63
2019-04-29T10:52:24.506Z,38.50
2019-04-29T10:54:32.723Z,34.83
2019-04-29T10:56:41.067Z,32.15
2019-04-29T10:58:49.008Z,32.80
2019-04-29T11:02:09.310Z,34.03
2019-04-29T11:04:14.673Z,33.10
2019-04-29T11:06:22.078Z,39.92
2019-04-29T11:08:48.233Z,32.45
2019-04-29T11:11:02.274Z,37.58
2019-04-29T11:13:07.002Z,36.05
2019-04-29T11:15:16.096Z,32.23
2019-04-29T11:17:25.662Z,27.62
2019-04-29T11:19:35.047Z,29.80
2019-04-29T11:21:42.889Z,30.97
2019-04-29T11:24:15.667Z,29.07
2019-04-29T11:26:46.691Z,30.75
2019-04-29T11:28:56.107Z,33.38
2019-04-29T11:31:04.163Z,31.95
2019-04-29T11:33:18.210Z,28.80
2019-04-29T11:35:32.212Z,32.15
2019-04-29T11:37:40.037Z,30.97
2019-04-29T11:39:50.312Z,30.10
2019-04-29T11:41:59.784Z,36.58
2019-04-29T11:44:07.153Z,30.80
2019-04-29T11:46:15.745Z,33.95
2019-04-29T11:48:23.592Z,30.05
2019-04-29T11:50:40.363Z,32.05
2019-04-29T11:52:48.279Z,31.60
2019-04-29T11:54:56.372Z,31.55
2019-04-29T11:57:04.117Z,29.98
2019-04-29T11:59:35.240Z,36.38
2019-04-29T12:02:10.818Z,34.18
2019-04-29T12:04:49.579Z,31.45
2019-04-29T12:06:58.413Z,29.55
2019-04-29T12:09:08.907Z,28.20
2019-04-29T12:11:17.026Z,30.05
2019-04-29T12:13:43.947Z,29.10
2019-04-29T12:15:58.425Z,31.75
2019-04-29T12:18:12.943Z,30.85
2019-04-29T12:20:42.568Z,30.17
2019-04-29T12:22:50.416Z,30.05
2019-04-29T12:24:58.323Z,27.32
2019-04-29T12:27:06.890Z,29.77
2019-04-29T12:29:18.261Z,26.95
2019-04-29T12:31:30.882Z,27.82
2019-04-29T12:33:46.977Z,33.50
2019-04-29T12:36:03.268Z,30.02
2019-04-29T12:38:48.843Z,33.50
2019-04-29T12:41:20.198Z,29.30
2019-04-29T12:43:33.559Z,27.60
2019-04-29T12:45:47.068Z,27.05
2019-04-29T12:47:54.848Z,28.80
2019-04-29T12:50:02.623Z,27.48
2019-04-29T12:52:10.457Z,25.72
2019-04-29T12:54:18.416Z,32.67
2019-04-29T12:56:33.304Z,26.50
2019-04-29T12:58:41.186Z,30.65
2019-04-29T13:00:56.133Z,28.05
2019-04-29T13:03:23.256Z,29.42
2019-04-29T13:05:58.404Z,30.45
2019-04-29T13:08:24.119Z,31.85
2019-04-29T13:10:46.547Z,26.33
2019-04-29T13:12:54.395Z,27.82
2019-04-29T13:15:14.259Z,24.57
2019-04-29T13:17:35.585Z,30.37
2019-04-29T13:20:02.039Z,28.15
2019-04-29T13:22:04.274Z,27.13
2019-04-29T13:24:23.030Z,27.90
2019-04-29T13:26:28.116Z,24.12
2019-04-29T13:28:34.466Z,26.93
2019-04-29T13:30:43.356Z,27.10
2019-04-29T13:32:50.306Z,26.90
2019-04-29T13:35:05.218Z,27.87
2019-04-29T13:37:18.382Z,27.30
2019-04-29T13:39:37.849Z,27.70
2019-04-29T13:41:29.588Z,28.20
2019-04-29T13:43:37.520Z,33.33
2019-04-29T13:45:51.171Z,27.10
2019-04-29T13:48:17.680Z,28.75
2019-04-29T13:50:50.414Z,28.23
2019-04-29T13:52:58.263Z,32.17
2019-04-29T13:55:17.045Z,26.52
2019-04-29T13:57:16.453Z,29.12
2019-04-29T13:59:37.577Z,26.82
2019-04-29T14:02:29.145Z,26.62
2019-04-29T14:04:36.308Z,28.65
2019-04-29T14:06:56.755Z,24.95
2019-04-29T14:08:55.185Z,21.90
2019-04-29T14:11:02.839Z,27.73
2019-04-29T14:13:16.348Z,27.77
2019-04-29T14:15:21.556Z,23.60
2019-04-29T14:17:31.674Z,26.57
2019-04-29T14:19:42.257Z,21.65
2019-04-29T14:21:48.830Z,21.20
2019-04-29T14:23:56.677Z,24.80
2019-04-29T14:26:04.607Z,23.87
2019-04-29T14:28:12.387Z,36.50
2019-04-29T14:30:21.337Z,34.33
2019-04-29T14:32:35.819Z,27.65
2019-04-29T14:34:46.340Z,21.33
2019-04-29T14:36:57.416Z,27.55
2019-04-29T14:39:03.604Z,24.30
2019-04-29T14:41:14.049Z,22.93
2019-04-29T14:43:50.640Z,26.17
2019-04-29T14:46:27.439Z,24.82
2019-04-29T14:48:59.597Z,24.50
2019-04-29T14:51:08.911Z,17.17
2019-04-29T14:53:19.537Z,17.52
2019-04-29T14:55:27.057Z,20.75
2019-04-29T14:57:34.891Z,17.62
2019-04-29T14:59:42.839Z,16.57
2019-04-29T15:02:16.117Z,18.05
2019-04-29T15:04:21.438Z,20.48
2019-04-29T15:06:29.564Z,17.40
2019-04-29T15:08:38.210Z,15.43
2019-04-29T15:10:47.971Z,17.07
2019-04-29T15:13:11.536Z,14.78
2019-04-29T15:15:18.943Z,25.23
2019-04-29T15:17:46.347Z,19.80
2019-04-29T15:20:04.889Z,21.77
2019-04-29T15:22:13.323Z,19.05
2019-04-29T15:24:21.136Z,18.05
2019-04-29T15:26:29.084Z,17.65
2019-04-29T15:28:51.439Z,16.17
2019-04-29T15:30:59.668Z,24.02
2019-04-29T15:33:07.705Z,21.55
2019-04-29T15:35:19.717Z,22.10
2019-04-29T15:37:25.232Z,18.45
2019-04-29T15:39:33.405Z,16.40
2019-04-29T15:41:41.370Z,18.37
2019-04-29T15:43:49.168Z,16.35
2019-04-29T15:45:57.059Z,26.48
2019-04-29T15:48:04.915Z,25.80
2019-04-29T15:50:18.816Z,18.65
2019-04-29T15:52:26.000Z,18.07
2019-04-29T15:54:32.313Z,16.47
2019-04-29T15:56:40.528Z,22.62
2019-04-29T15:58:48.479Z,17.10
2019-04-29T16:01:11.779Z,16.87
2019-04-29T16:03:06.147Z,17.32
2019-04-29T16:05:29.025Z,17.85
2019-04-29T16:07:51.608Z,22.73
2019-04-29T16:10:25.820Z,19.67
2019-04-29T16:12:39.104Z,21.42
2019-04-29T16:14:49.162Z,20.00
2019-04-29T16:16:56.810Z,18.30
2019-04-29T16:21:15.045Z,17.32
2019-04-29T16:23:23.029Z,22.02
2019-04-29T16:25:30.773Z,21.30
2019-04-29T16:27:40.991Z,18.17
2019-04-29T16:29:51.578Z,20.60
2019-04-29T16:32:02.181Z,17.48
2019-04-29T16:34:07.707Z,20.37
2019-04-29T16:36:16.247Z,22.17
2019-04-29T16:38:25.443Z,19.82
2019-04-29T16:40:39.268Z,25.92
2019-04-29T16:43:14.870Z,21.02
2019-04-29T16:45:26.006Z,30.12
2019-04-29T16:47:34.165Z,23.35
2019-04-29T16:49:42.230Z,18.95
2019-04-29T16:51:53.789Z,22.35
2019-04-29T16:54:00.591Z,23.12
2019-04-29T16:56:15.785Z,22.32
2019-04-29T16:58:18.760Z,22.70
2019-04-29T17:00:29.175Z,24.18
2019-04-29T17:02:37.674Z,23.90
2019-04-29T17:04:45.899Z,28.15
2019-04-29T17:07:11.640Z,24.72
2019-04-29T17:09:23.098Z,28.62
2019-04-29T17:11:33.543Z,30.85
2019-04-29T17:13:41.487Z,26.00
2019-04-29T17:15:52.022Z,24.35
2019-04-29T17:17:59.389Z,26.12
2019-04-29T17:20:09.950Z,22.45
2019-04-29T17:22:25.443Z,24.57
2019-04-29T17:24:28.476Z,27.32
2019-04-29T17:26:55.533Z,25.23
2019-04-29T17:29:38.421Z,26.55
2019-04-29T17:31:56.117Z,27.07
2019-04-29T17:34:05.203Z,22.77
2019-04-29T17:35:13.992Z,17.32
2019-04-29T17:36:13.480Z,28.32
2019-04-29T17:38:21.412Z,27.85
2019-04-29T17:40:30.664Z,25.25
2019-04-29T17:42:40.040Z,21.73
2019-04-29T17:44:48.182Z,25.13
2019-04-29T17:47:14.460Z,23.62
2019-04-29T17:49:35.173Z,27.60
2019-04-29T17:51:43.355Z,33.30
2019-04-29T17:53:56.492Z,45.40
2019-04-29T17:56:24.678Z,62.83
2019-04-29T17:58:43.903Z,57.10
2019-04-29T18:01:17.063Z,47.65
2019-04-29T18:03:45.945Z,58.05
2019-04-29T18:06:23.779Z,56.98
2019-04-29T18:08:47.712Z,40.10
2019-04-29T18:10:59.947Z,37.78
2019-04-29T18:13:07.039Z,44.45
2019-04-29T18:15:20.034Z,50.38
2019-04-29T18:17:31.228Z,43.92
2019-04-29T18:19:58.009Z,33.50
2019-04-29T18:22:24.875Z,33.13
2019-04-29T18:24:56.739Z,33.97
2019-04-29T18:27:08.265Z,31.60
2019-04-29T18:29:16.246Z,35.87
2019-04-29T18:31:26.418Z,27.70
2019-04-29T18:33:35.134Z,28.83
2019-04-29T18:35:43.015Z,33.50
2019-04-29T18:37:51.136Z,28.13
2019-04-29T18:40:02.313Z,26.80
2019-04-29T18:42:09.168Z,28.10
2019-04-29T18:44:19.586Z,29.43
2019-04-29T18:46:27.006Z,26.68
2019-04-29T18:48:35.383Z,22.93
2019-04-29T18:50:43.713Z,27.40
2019-04-29T18:52:51.618Z,26.52
2019-04-29T18:55:00.615Z,37.95
2019-04-29T18:57:08.395Z,29.72
2019-04-29T18:59:19.820Z,27.97
2019-04-29T19:01:28.811Z,27.87
2019-04-29T19:03:55.738Z,32.10
2019-04-29T19:06:10.079Z,28.40
2019-04-29T19:08:15.087Z,33.00
2019-04-29T19:10:32.171Z,28.17
2019-04-29T19:12:36.476Z,32.73
2019-04-29T19:14:45.979Z,31.97
2019-04-29T19:16:57.694Z,34.83
2019-04-29T19:19:03.066Z,32.30
2019-04-29T19:21:11.209Z,35.27
2019-04-29T19:23:22.279Z,28.92
2019-04-29T19:25:29.189Z,31.85
2019-04-29T19:27:39.746Z,30.47
2019-04-29T19:29:46.725Z,33.30
2019-04-29T19:31:54.984Z,37.23
2019-04-29T19:34:02.945Z,31.07
2019-04-29T19:36:17.075Z,32.20
2019-04-29T19:38:21.007Z,29.80
2019-04-29T19:40:30.641Z,31.20
2019-04-29T19:42:39.793Z,37.37
2019-04-29T19:44:48.454Z,29.67
2019-04-29T19:46:58.964Z,31.70
2019-04-29T19:49:09.883Z,28.67
2019-04-29T19:51:18.589Z,28.17
2019-04-29T19:53:26.404Z,28.90
2019-04-29T19:55:41.850Z,29.47
2019-04-29T19:57:48.363Z,33.60
2019-04-29T19:59:54.502Z,25.70
2019-04-29T20:02:08.587Z,31.17
2019-04-29T20:04:27.317Z,32.57
2019-04-29T20:06:37.395Z,35.10
2019-04-29T20:08:54.231Z,35.73
2019-04-29T20:11:01.053Z,35.83
2019-04-29T20:13:04.968Z,34.57
2019-04-29T20:15:16.421Z,30.73
2019-04-29T20:17:49.192Z,35.50
2019-04-29T20:20:29.816Z,34.10
2019-04-29T20:22:43.439Z,39.33
2019-04-29T20:24:50.735Z,37.47
2019-04-29T20:26:58.548Z,33.27
2019-04-29T20:29:07.422Z,37.37
2019-04-29T20:31:21.732Z,37.83
2019-04-29T20:33:25.696Z,33.60
2019-04-29T20:35:35.766Z,29.53
2019-04-29T20:37:43.788Z,34.27
2019-04-29T20:39:57.166Z,31.00
2019-04-29T20:42:06.440Z,32.33
2019-04-29T20:44:13.627Z,38.13
2019-04-29T20:46:21.616Z,35.70
2019-04-29T20:48:31.536Z,32.30
2019-04-29T20:50:41.003Z,34.83
2019-04-29T20:52:59.069Z,32.87
2019-04-29T20:55:07.369Z,32.23
2019-04-29T20:57:20.385Z,41.60
2019-04-29T20:59:25.864Z,42.00
2019-04-29T21:01:43.090Z,46.87
2019-04-29T21:03:52.159Z,37.87
2019-04-29T21:06:02.347Z,38.03
2019-04-29T21:08:14.550Z,43.77
2019-04-29T21:10:18.270Z,33.53
2019-04-29T21:12:41.809Z,35.10
2019-04-29T21:14:53.273Z,39.30
2019-04-29T21:17:02.309Z,37.23
2019-04-29T21:19:11.490Z,38.97
2019-04-29T21:21:19.359Z,36.33
2019-04-29T21:23:31.418Z,35.27
2019-04-29T21:25:37.729Z,33.63
2019-04-29T21:27:48.504Z,37.20
2019-04-29T21:29:55.674Z,38.83
2019-04-29T21:32:05.702Z,34.70
2019-04-29T21:34:15.145Z,34.23
2019-04-29T21:36:36.732Z,38.10
2019-04-29T21:39:01.816Z,36.27
2019-04-29T21:41:15.452Z,36.80
2019-04-29T21:43:26.110Z,38.50
2019-04-29T21:45:35.722Z,37.27
2019-04-29T21:47:45.686Z,40.17
2019-04-29T21:49:54.589Z,39.50
2019-04-29T21:52:03.266Z,35.93
2019-04-29T21:54:14.234Z,37.83
2019-04-29T21:56:21.100Z,37.23
2019-04-29T21:58:32.969Z,41.33
2019-04-29T22:00:38.524Z,36.20
2019-04-29T22:02:49.057Z,41.70
2019-04-29T22:04:55.932Z,38.13
2019-04-29T22:07:07.229Z,33.97
2019-04-29T22:09:15.928Z,43.63
2019-04-29T22:11:25.739Z,41.93
2019-04-29T22:13:37.524Z,37.27
2019-04-29T22:15:43.132Z,44.80
2019-04-29T22:17:56.357Z,42.33
2019-04-29T22:20:03.931Z,40.57
2019-04-29T22:22:10.148Z,37.23
2019-04-29T22:24:21.715Z,36.43
2019-04-29T22:26:27.506Z,52.57
2019-04-29T22:28:35.348Z,43.33
2019-04-29T22:30:43.184Z,38.93
2019-04-29T22:33:15.312Z,43.33
2019-04-29T22:35:25.196Z,34.73
2019-04-29T22:37:34.661Z,36.33
2019-04-29T22:39:42.336Z,36.63
2019-04-29T22:42:04.591Z,35.30
2019-04-29T22:44:15.126Z,37.87
2019-04-29T22:46:21.733Z,45.43
2019-04-29T22:48:29.399Z,37.13
2019-04-29T22:50:38.063Z,38.93
2019-04-29T22:52:46.681Z,48.53
2019-04-29T22:54:57.952Z,48.40
2019-04-29T22:57:05.594Z,50.63
2019-04-29T22:59:14.711Z,38.13
2019-04-29T23:01:22.452Z,59.63
2019-04-29T23:03:32.799Z,37.63
2019-04-29T23:05:39.434Z,43.73
2019-04-29T23:07:47.222Z,39.97
2019-04-29T23:09:55.528Z,34.13
2019-04-29T23:12:05.437Z,35.73
2019-04-29T23:14:15.155Z,38.63
2019-04-29T23:16:22.628Z,44.30
2019-04-29T23:18:41.078Z,37.37
2019-04-29T23:21:10.536Z,35.60
2019-04-29T23:23:27.308Z,38.60
2019-04-29T23:25:35.847Z,35.80
2019-04-29T23:27:44.111Z,39.67
2019-04-29T23:29:51.789Z,33.53
2019-04-29T23:32:03.782Z,33.30
2019-04-29T23:34:08.923Z,39.53
2019-04-29T23:36:16.569Z,36.80
2019-04-29T23:38:25.603Z,44.13
2019-04-29T23:40:33.244Z,45.10
2019-04-29T23:42:43.710Z,48.27
2019-04-29T23:44:50.511Z,41.40
2019-04-29T23:46:58.273Z,44.70
2019-04-29T23:49:06.731Z,60.73
2019-04-29T23:51:15.358Z,35.50
2019-04-29T23:53:25.141Z,64.43
2019-04-29T23:55:32.721Z,58.50
2019-04-29T23:57:55.514Z,38.73
